Emily Anne Mcallister — WDB3028 — position and weather

sailwx.info

Track history (hours):
 
Tides and Currents Weather Stations Pressure Air Temp Water Temp Dewpoint Dewpoint Depression Visibility Wind Speed Wind Dir Waves Ship Positions

Emily Anne Mcallister

Owner: MCALLISTER TOWING & TRANSPORTATION INC, NEW YORK, NY. More information available from US FCC via Universal Licensing System and Coast Guard Vessel Documentation Center.

Last reported at 2017-Dec-16 19:00 UTC. Time now 2017-Dec-16 19:07 UTC.
Position N 36°51' W 076°19'.

Length 30 m; draft 5 m.

Type: Pilot. MMSI: 366882560.

Date/timePositionNaut miles runAvg speedWind from/ knotsBaromVisibWave heightAir tempDewpointWater temp
2017-Dec-16 19:00N 36°51' W 076°19'0 0.0
2017-Dec-16 18:30N 36°51' W 076°19'0 0.0
2017-Dec-16 18:00N 36°51' W 076°19'0 0.0
2017-Dec-16 17:31N 36°51' W 076°19'2 3.2
2017-Dec-16 17:01N 36°52' W 076°21'0 0.1
2017-Dec-16 16:30N 36°52' W 076°21'2 4.4
2017-Dec-16 16:00N 36°55' W 076°20'2 2.9
2017-Dec-16 15:27N 36°53' W 076°20'1 1.7
2017-Dec-16 15:01N 36°53' W 076°21'0 0.0
2017-Dec-16 14:30N 36°53' W 076°21'0 0.0
2017-Dec-16 14:00N 36°53' W 076°21'0 0.0
2017-Dec-16 13:30N 36°53' W 076°21'0 0.3
2017-Dec-16 13:00N 36°53' W 076°21'0 0.2
2017-Dec-16 12:30N 36°53' W 076°21'3 5.9
2017-Dec-16 12:00N 36°56' W 076°20'0 0.4
2017-Dec-16 11:07N 36°56' W 076°20'0 0.0
2017-Dec-16 10:58N 36°56' W 076°20'2 2.7
2017-Dec-16 10:20N 36°54' W 076°20'3 7.8
2017-Dec-16 10:01N 36°52' W 076°19'0 0.7
2017-Dec-16 09:30N 36°51' W 076°20'1 1.2
2017-Dec-16 09:00N 36°52' W 076°20'0 0.2
2017-Dec-16 08:30N 36°52' W 076°20'1 1.5
2017-Dec-16 08:01N 36°51' W 076°20'2 4.2
2017-Dec-16 07:31N 36°50' W 076°17'0 0.0
2017-Dec-16 07:01N 36°50' W 076°17'0 0.0
2017-Dec-16 06:30N 36°50' W 076°17'0 0.0
2017-Dec-16 06:00N 36°50' W 076°17'0 0.0
2017-Dec-16 05:31N 36°50' W 076°17'0 0.0
2017-Dec-16 05:00N 36°50' W 076°17'0 0.0
2017-Dec-16 04:31N 36°50' W 076°17'0 0.0
2017-Dec-16 04:00N 36°50' W 076°17'0 0.0
2017-Dec-16 03:31N 36°50' W 076°17'0 0.0
2017-Dec-16 03:01N 36°50' W 076°17'0 0.0
2017-Dec-16 02:31N 36°50' W 076°17'0 0.0
2017-Dec-16 02:01N 36°50' W 076°17'0 0.0
2017-Dec-16 01:30N 36°50' W 076°17'0 0.0
2017-Dec-16 01:00N 36°50' W 076°17'0 0.0
2017-Dec-16 00:30N 36°50' W 076°17'0 0.0
2017-Dec-16 00:01N 36°50' W 076°17'1 2.2
2017-Dec-15 23:31N 36°49' W 076°17'0 0.0
2017-Dec-15 23:01N 36°49' W 076°17'1 1.7
2017-Dec-15 22:31N 36°48' W 076°17'1 1.0
2017-Dec-15 22:00N 36°48' W 076°18'0 0.0
2017-Dec-15 21:31N 36°48' W 076°18'0 0.0
2017-Dec-15 21:01N 36°48' W 076°18'0 0.0
2017-Dec-15 20:31N 36°48' W 076°18'0 0.0
2017-Dec-15 20:01N 36°48' W 076°18'2 4.7
2017-Dec-15 19:30N 36°50' W 076°18'0 0.4
2017-Dec-15 19:01N 36°50' W 076°17'0 0.0
2017-Dec-15 18:31N 36°50' W 076°17'0 0.0
2017-Dec-15 18:01N 36°50' W 076°17'0 0.0
2017-Dec-15 17:30N 36°50' W 076°17'0 0.0
2017-Dec-15 17:00N 36°50' W 076°17'0 0.0
2017-Dec-15 16:31N 36°50' W 076°17'0 0.0
2017-Dec-15 16:00N 36°50' W 076°17'0 0.0
2017-Dec-15 15:31N 36°50' W 076°17'0 0.0
2017-Dec-15 15:00N 36°50' W 076°17'0 0.0
2017-Dec-15 14:30N 36°50' W 076°17'0 0.0
2017-Dec-15 14:01N 36°50' W 076°17'0 0.0
2017-Dec-15 13:31N 36°50' W 076°17'0 0.0
2017-Dec-15 13:01N 36°50' W 076°17'0 0.0
2017-Dec-15 12:30N 36°50' W 076°17'0 0.0
2017-Dec-15 12:00N 36°50' W 076°17'0 0.0
2017-Dec-15 11:28N 36°50' W 076°17'0 0.0
2017-Dec-15 11:00N 36°50' W 076°17'0 0.0
2017-Dec-15 10:27N 36°50' W 076°17'0 0.0
2017-Dec-15 09:58N 36°50' W 076°17'0 0.0
2017-Dec-15 09:30N 36°50' W 076°17'0 0.0
2017-Dec-15 09:00N 36°50' W 076°17'0 0.0
2017-Dec-15 08:30N 36°50' W 076°17'0 0.0
2017-Dec-15 08:00N 36°50' W 076°17'0 0.0
2017-Dec-15 07:30N 36°50' W 076°17'0 0.0
2017-Dec-15 07:01N 36°50' W 076°17'0 0.0
2017-Dec-15 06:31N 36°50' W 076°17'0 0.0
2017-Dec-15 06:00N 36°50' W 076°17'0 0.0
2017-Dec-15 05:30N 36°50' W 076°17'0 0.0
2017-Dec-15 05:00N 36°50' W 076°17'0 0.0
2017-Dec-15 04:30N 36°50' W 076°17'0 0.0
2017-Dec-15 04:00N 36°50' W 076°17'0 0.0
2017-Dec-15 02:30N 36°50' W 076°17'0 0.0
2017-Dec-15 00:59N 36°50' W 076°17'0 0.0
2017-Dec-15 00:21N 36°50' W 076°17'  
Track history (hours):
 
Tides and Currents Weather Stations Pressure Air Temp Water Temp Dewpoint Dewpoint Depression Visibility Wind Speed Wind Dir Waves Ship Positions

Emily Anne Mcallister

Owner: MCALLISTER TOWING & TRANSPORTATION INC, NEW YORK, NY. More information available from US FCC via Universal Licensing System and Coast Guard Vessel Documentation Center.

Last reported at 2017-Dec-16 19:00 UTC. Time now 2017-Dec-16 19:07 UTC.
Position N 36°51' W 076°19'.

Length 30 m; draft 5 m.

Type: Pilot. MMSI: 366882560.

Date/timePositionNaut miles runAvg speedWind from/ knotsBaromVisibWave heightAir tempDewpointWater temp
2017-Dec-16 19:00N 36°51' W 076°19'0 0.0
2017-Dec-16 18:30N 36°51' W 076°19'0 0.0
2017-Dec-16 18:00N 36°51' W 076°19'0 0.0
2017-Dec-16 17:31N 36°51' W 076°19'2 3.2
2017-Dec-16 17:01N 36°52' W 076°21'0 0.1
2017-Dec-16 16:30N 36°52' W 076°21'2 4.4
2017-Dec-16 16:00N 36°55' W 076°20'2 2.9
2017-Dec-16 15:27N 36°53' W 076°20'1 1.7
2017-Dec-16 15:01N 36°53' W 076°21'0 0.0
2017-Dec-16 14:30N 36°53' W 076°21'0 0.0
2017-Dec-16 14:00N 36°53' W 076°21'0 0.0
2017-Dec-16 13:30N 36°53' W 076°21'0 0.3
2017-Dec-16 13:00N 36°53' W 076°21'0 0.2
2017-Dec-16 12:30N 36°53' W 076°21'3 5.9
2017-Dec-16 12:00N 36°56' W 076°20'0 0.4
2017-Dec-16 11:07N 36°56' W 076°20'0 0.0
2017-Dec-16 10:58N 36°56' W 076°20'2 2.7
2017-Dec-16 10:20N 36°54' W 076°20'3 7.8
2017-Dec-16 10:01N 36°52' W 076°19'0 0.7
2017-Dec-16 09:30N 36°51' W 076°20'1 1.2
2017-Dec-16 09:00N 36°52' W 076°20'0 0.2
2017-Dec-16 08:30N 36°52' W 076°20'1 1.5
2017-Dec-16 08:01N 36°51' W 076°20'2 4.2
2017-Dec-16 07:31N 36°50' W 076°17'0 0.0
2017-Dec-16 07:01N 36°50' W 076°17'0 0.0
2017-Dec-16 06:30N 36°50' W 076°17'0 0.0
2017-Dec-16 06:00N 36°50' W 076°17'0 0.0
2017-Dec-16 05:31N 36°50' W 076°17'0 0.0
2017-Dec-16 05:00N 36°50' W 076°17'0 0.0
2017-Dec-16 04:31N 36°50' W 076°17'0 0.0
2017-Dec-16 04:00N 36°50' W 076°17'0 0.0
2017-Dec-16 03:31N 36°50' W 076°17'0 0.0
2017-Dec-16 03:01N 36°50' W 076°17'0 0.0
2017-Dec-16 02:31N 36°50' W 076°17'0 0.0
2017-Dec-16 02:01N 36°50' W 076°17'0 0.0
2017-Dec-16 01:30N 36°50' W 076°17'0 0.0
2017-Dec-16 01:00N 36°50' W 076°17'0 0.0
2017-Dec-16 00:30N 36°50' W 076°17'0 0.0
2017-Dec-16 00:01N 36°50' W 076°17'1 2.2
2017-Dec-15 23:31N 36°49' W 076°17'0 0.0
2017-Dec-15 23:01N 36°49' W 076°17'1 1.7
2017-Dec-15 22:31N 36°48' W 076°17'1 1.0
2017-Dec-15 22:00N 36°48' W 076°18'0 0.0
2017-Dec-15 21:31N 36°48' W 076°18'0 0.0
2017-Dec-15 21:01N 36°48' W 076°18'0 0.0
2017-Dec-15 20:31N 36°48' W 076°18'0 0.0
2017-Dec-15 20:01N 36°48' W 076°18'2 4.7
2017-Dec-15 19:30N 36°50' W 076°18'0 0.4
2017-Dec-15 19:01N 36°50' W 076°17'0 0.0
2017-Dec-15 18:31N 36°50' W 076°17'0 0.0
2017-Dec-15 18:01N 36°50' W 076°17'0 0.0
2017-Dec-15 17:30N 36°50' W 076°17'0 0.0
2017-Dec-15 17:00N 36°50' W 076°17'0 0.0
2017-Dec-15 16:31N 36°50' W 076°17'0 0.0
2017-Dec-15 16:00N 36°50' W 076°17'0 0.0
2017-Dec-15 15:31N 36°50' W 076°17'0 0.0
2017-Dec-15 15:00N 36°50' W 076°17'0 0.0
2017-Dec-15 14:30N 36°50' W 076°17'0 0.0
2017-Dec-15 14:01N 36°50' W 076°17'0 0.0
2017-Dec-15 13:31N 36°50' W 076°17'0 0.0
2017-Dec-15 13:01N 36°50' W 076°17'0 0.0
2017-Dec-15 12:30N 36°50' W 076°17'0 0.0
2017-Dec-15 12:00N 36°50' W 076°17'0 0.0
2017-Dec-15 11:28N 36°50' W 076°17'0 0.0
2017-Dec-15 11:00N 36°50' W 076°17'0 0.0
2017-Dec-15 10:27N 36°50' W 076°17'0 0.0
2017-Dec-15 09:58N 36°50' W 076°17'0 0.0
2017-Dec-15 09:30N 36°50' W 076°17'0 0.0
2017-Dec-15 09:00N 36°50' W 076°17'0 0.0
2017-Dec-15 08:30N 36°50' W 076°17'0 0.0
2017-Dec-15 08:00N 36°50' W 076°17'0 0.0
2017-Dec-15 07:30N 36°50' W 076°17'0 0.0
2017-Dec-15 07:01N 36°50' W 076°17'0 0.0
2017-Dec-15 06:31N 36°50' W 076°17'0 0.0
2017-Dec-15 06:00N 36°50' W 076°17'0 0.0
2017-Dec-15 05:30N 36°50' W 076°17'0 0.0
2017-Dec-15 05:00N 36°50' W 076°17'0 0.0
2017-Dec-15 04:30N 36°50' W 076°17'0 0.0
2017-Dec-15 04:00N 36°50' W 076°17'0 0.0
2017-Dec-15 02:30N 36°50' W 076°17'0 0.0
2017-Dec-15 00:59N 36°50' W 076°17'0 0.0
2017-Dec-15 00:21N 36°50' W 076°17'  

Dump ship's entire track history